Time;durP1;ratioP1;P1;durP2;ratioP2;P2;SDS_P1;SDS_P2;PMS_P1;PMS_P2;Temp;Humidity;BMP_temperature;BMP_pressure;BME280_temperature;BME280_humidity;BME280_pressure;Samples;Min_cycle;Max_cycle;Signal;HPM_P1;HPM_P2
2022/09/30 00:02:28;;;;;;;34.10;20.13;;;8.60;99.90;;;;;;4427336;28;656578;-79
2022/09/30 00:05:16;;;;;;;50.13;26.77;;;8.60;99.90;;;;;;4401599;28;657223;-79
2022/09/30 00:08:03;;;;;;;36.30;19.70;;;8.70;99.90;;;;;;4425638;28;656927;-79
2022/09/30 00:11:00;;;;;;;31.43;17.93;;;8.70;99.90;;;;;;4411387;28;656846;-79
2022/09/30 00:13:49;;;;;;;56.50;28.33;;;8.80;99.90;;;;;;4400177;28;656577;-79
2022/09/30 00:16:36;;;;;;;22.63;13.03;;;8.90;99.90;;;;;;4407602;28;656680;-79
2022/09/30 00:19:24;;;;;;;20.50;12.17;;;8.90;99.90;;;;;;4428540;28;656858;-79
2022/09/30 00:22:11;;;;;;;33.97;22.23;;;8.90;99.90;;;;;;4407928;28;656809;-79
2022/09/30 00:24:58;;;;;;;22.63;12.53;;;9.00;99.90;;;;;;4430724;28;658004;-79
2022/09/30 00:27:46;;;;;;;28.13;17.08;;;9.00;99.90;;;;;;4409027;28;657084;-78
2022/09/30 00:30:34;;;;;;;26.67;11.83;;;9.10;99.90;;;;;;4428969;28;656932;-79
2022/09/30 00:33:21;;;;;;;22.13;13.10;;;9.10;99.90;;;;;;4405880;28;656311;-80
2022/09/30 00:36:08;;;;;;;19.97;10.70;;;9.10;99.90;;;;;;4428157;28;657384;-79
2022/09/30 00:38:55;;;;;;;21.47;13.60;;;9.10;99.90;;;;;;4407690;28;656591;-78
2022/09/30 00:41:42;;;;;;;24.20;13.40;;;9.20;99.90;;;;;;4430436;28;656670;-80
2022/09/30 00:44:56;;;;;;;18.30;11.20;;;9.20;99.90;;;;;;4424126;28;657000;-79
2022/09/30 00:47:46;;;;;;;23.83;13.67;;;9.20;99.90;;;;;;4403131;28;656811;-80
2022/09/30 00:50:35;;;;;;;19.07;11.23;;;9.20;99.90;;;;;;4401379;28;656628;-79
2022/09/30 00:53:24;;;;;;;27.10;16.83;;;9.20;99.90;;;;;;4408741;28;656862;-79
2022/09/30 00:56:12;;;;;;;141.83;38.10;;;9.20;99.90;;;;;;4406255;28;657127;-79
2022/09/30 00:59:01;;;;;;;113.33;33.73;;;9.20;99.90;;;;;;4428664;28;656947;-80
2022/09/30 01:01:49;;;;;;;22.37;12.13;;;9.30;99.90;;;;;;4406948;28;657818;-79
2022/09/30 01:04:37;;;;;;;15.37;9.47;;;9.30;99.90;;;;;;4405943;28;656415;-79
2022/09/30 01:07:24;;;;;;;20.37;12.03;;;9.30;99.90;;;;;;4427102;28;655645;-79
2022/09/30 01:10:11;;;;;;;17.93;9.83;;;9.30;99.90;;;;;;4409018;28;657148;-79
2022/09/30 01:12:58;;;;;;;20.93;10.50;;;9.30;99.90;;;;;;4429013;28;656481;-80
2022/09/30 01:15:54;;;;;;;17.13;10.87;;;9.40;99.90;;;;;;4397933;28;656307;-79
2022/09/30 01:18:50;;;;;;;19.17;11.07;;;9.40;99.90;;;;;;4403998;28;656600;-79
2022/09/30 01:22:03;;;;;;;49.70;21.17;;;9.40;99.90;;;;;;4403400;28;656607;-79
2022/09/30 01:25:13;;;;;;;33.77;15.77;;;9.40;99.90;;;;;;4406737;28;656351;-78
2022/09/30 01:28:20;;;;;;;23.83;11.40;;;9.40;99.90;;;;;;4393892;28;656427;-79
2022/09/30 01:31:14;;;;;;;13.33;7.40;;;9.50;99.90;;;;;;4401351;28;656574;-79
2022/09/30 01:34:03;;;;;;;12.97;7.67;;;9.50;99.90;;;;;;4407295;28;656081;-79
2022/09/30 01:36:59;;;;;;;19.60;10.50;;;9.50;99.90;;;;;;4407056;28;655880;-79
2022/09/30 01:39:50;;;;;;;20.63;11.18;;;9.50;99.90;;;;;;4376164;28;656726;-79
2022/09/30 01:42:41;;;;;;;26.53;14.33;;;9.50;99.90;;;;;;4408191;28;657643;-80
2022/09/30 01:45:32;;;;;;;19.57;10.70;;;9.50;99.90;;;;;;4400619;28;657712;-80
2022/09/30 01:48:22;;;;;;;20.17;10.90;;;9.50;99.90;;;;;;4403947;28;656411;-79
2022/09/30 01:51:11;;;;;;;14.07;9.43;;;9.50;99.90;;;;;;4409325;28;656933;-80
2022/09/30 01:54:00;;;;;;;13.80;8.80;;;9.50;99.90;;;;;;4405486;28;656024;-80
2022/09/30 01:56:48;;;;;;;15.03;10.13;;;9.50;99.90;;;;;;4402567;28;656214;-78
2022/09/30 01:59:37;;;;;;;17.30;10.33;;;9.60;99.90;;;;;;4404949;28;656421;-79
2022/09/30 02:02:25;;;;;;;23.13;11.83;;;9.60;99.90;;;;;;4426973;28;656600;-80
2022/09/30 02:05:16;;;;;;;28.13;14.57;;;9.60;99.90;;;;;;4405391;28;656498;-79
2022/09/30 02:08:04;;;;;;;39.40;15.23;;;9.50;99.90;;;;;;4403179;28;657680;-79
2022/09/30 02:10:55;;;;;;;21.33;11.07;;;9.60;99.90;;;;;;4407228;28;657465;-79
2022/09/30 02:13:43;;;;;;;23.13;14.77;;;9.60;99.90;;;;;;4406170;28;656487;-80
2022/09/30 02:16:35;;;;;;;18.07;11.23;;;9.60;99.90;;;;;;4406120;28;656748;-79
2022/09/30 02:19:25;;;;;;;19.07;11.43;;;9.60;99.90;;;;;;4404241;28;657491;-80
2022/09/30 02:22:15;;;;;;;53.87;19.53;;;9.60;99.90;;;;;;4405015;28;658254;-80
2022/09/30 02:25:03;;;;;;;17.67;11.40;;;9.60;99.90;;;;;;4407665;28;656423;-78
2022/09/30 02:27:51;;;;;;;18.47;11.37;;;9.60;99.90;;;;;;4411879;28;657065;-79
2022/09/30 02:30:41;;;;;;;20.87;11.00;;;9.50;99.90;;;;;;4425396;28;656896;-80
2022/09/30 02:33:31;;;;;;;29.70;15.67;;;9.50;99.90;;;;;;4406791;28;656379;-80
2022/09/30 02:36:19;;;;;;;28.07;14.67;;;9.50;99.90;;;;;;4404980;28;657626;-80
2022/09/30 02:39:10;;;;;;;20.50;12.13;;;9.50;99.90;;;;;;4405198;28;656610;-79
2022/09/30 02:42:00;;;;;;;20.30;11.17;;;9.50;99.90;;;;;;4399337;28;656954;-79
2022/09/30 02:44:47;;;;;;;28.33;15.90;;;9.50;99.90;;;;;;4403155;28;657043;-79
2022/09/30 02:47:42;;;;;;;31.10;15.53;;;9.50;99.90;;;;;;4429993;28;656125;-79
2022/09/30 02:50:31;;;;;;;24.20;14.37;;;9.50;99.90;;;;;;4405035;28;656897;-79
2022/09/30 02:53:22;;;;;;;30.07;17.60;;;9.50;99.90;;;;;;4404941;28;656485;-79
2022/09/30 02:56:14;;;;;;;21.50;13.63;;;9.60;99.90;;;;;;4404297;28;656591;-80
2022/09/30 02:59:01;;;;;;;23.20;14.27;;;9.50;99.90;;;;;;4402760;28;656423;-79
2022/09/30 03:01:48;;;;;;;32.57;17.80;;;9.50;99.90;;;;;;4426192;28;656424;-79
2022/09/30 03:04:36;;;;;;;96.07;34.77;;;9.50;99.90;;;;;;4402099;28;656737;-79
2022/09/30 03:07:23;;;;;;;39.00;20.00;;;9.50;99.90;;;;;;4425505;28;657440;-80
2022/09/30 03:10:13;;;;;;;22.10;13.97;;;9.50;99.90;;;;;;4408086;28;656525;-79
2022/09/30 03:13:12;;;;;;;55.37;27.73;;;9.50;99.90;;;;;;4404623;28;656468;-79
2022/09/30 03:16:06;;;;;;;30.47;16.67;;;9.50;99.90;;;;;;4405679;28;656754;-79
2022/09/30 03:19:08;;;;;;;30.17;16.77;;;9.50;99.90;;;;;;4400491;28;657255;-80
2022/09/30 03:22:04;;;;;;;72.60;21.33;;;9.50;99.90;;;;;;4386809;28;656771;-78
2022/09/30 03:25:08;;;;;;;53.60;21.00;;;9.50;99.90;;;;;;4403880;28;656506;-79
2022/09/30 03:28:02;;;;;;;28.85;13.32;;;9.50;99.90;;;;;;4407775;28;656515;-78
2022/09/30 03:30:55;;;;;;;19.37;12.13;;;9.50;99.90;;;;;;4395440;28;656431;-79
2022/09/30 03:33:46;;;;;;;32.03;17.50;;;9.50;99.90;;;;;;4400225;28;657134;-79
2022/09/30 03:36:36;;;;;;;25.57;14.87;;;9.50;99.90;;;;;;4394637;28;657153;-80
2022/09/30 03:39:26;;;;;;;23.17;14.40;;;9.50;99.90;;;;;;4406800;28;656455;-79
2022/09/30 03:42:16;;;;;;;23.13;13.57;;;9.50;99.90;;;;;;4399186;28;656986;-79
2022/09/30 03:45:05;;;;;;;20.13;13.07;;;9.60;99.90;;;;;;4399748;28;656516;-79
2022/09/30 03:47:54;;;;;;;23.63;14.00;;;9.60;99.90;;;;;;4404164;28;656454;-79
2022/09/30 03:50:41;;;;;;;27.57;14.70;;;9.60;99.90;;;;;;4402547;28;657053;-79
2022/09/30 03:53:28;;;;;;;24.47;14.73;;;9.60;99.90;;;;;;4423212;28;657602;-79
2022/09/30 03:56:16;;;;;;;25.17;15.10;;;9.70;99.90;;;;;;4400621;28;656924;-78
2022/09/30 03:59:03;;;;;;;27.87;15.63;;;9.70;99.90;;;;;;4422433;28;657446;-79
2022/09/30 04:01:50;;;;;;;27.00;14.77;;;9.70;99.90;;;;;;4406359;28;656106;-78
2022/09/30 04:04:39;;;;;;;26.13;15.57;;;9.70;99.90;;;;;;4429295;28;657497;-79
2022/09/30 04:07:26;;;;;;;21.67;13.70;;;9.70;99.90;;;;;;4405115;28;656710;-79
2022/09/30 04:10:14;;;;;;;32.47;15.97;;;9.70;99.90;;;;;;4419750;28;657087;-79
2022/09/30 04:13:01;;;;;;;25.50;15.37;;;9.60;99.90;;;;;;4403237;28;656491;-79
2022/09/30 04:15:53;;;;;;;46.97;21.40;;;9.60;99.90;;;;;;4425592;28;657201;-79
2022/09/30 04:18:41;;;;;;;34.23;17.47;;;9.60;99.90;;;;;;4381897;28;656770;-78
2022/09/30 04:21:29;;;;;;;32.83;16.80;;;9.60;99.90;;;;;;4425523;28;657174;-78
2022/09/30 04:24:16;;;;;;;52.73;20.00;;;9.70;99.90;;;;;;4404856;28;657840;-79
2022/09/30 04:27:04;;;;;;;85.23;30.20;;;9.70;99.90;;;;;;4423972;28;656627;-76
2022/09/30 04:29:51;;;;;;;36.87;18.23;;;9.60;99.90;;;;;;4401893;28;657126;-77
2022/09/30 04:32:40;;;;;;;36.53;20.30;;;9.60;99.90;;;;;;4421795;28;656396;-77
2022/09/30 04:35:28;;;;;;;35.33;18.67;;;9.60;99.90;;;;;;4405163;28;657325;-76
2022/09/30 04:38:17;;;;;;;32.13;17.13;;;9.60;99.90;;;;;;4406721;28;657046;-76
2022/09/30 04:41:05;;;;;;;32.30;18.30;;;9.60;99.90;;;;;;4425368;28;656262;-77
2022/09/30 04:43:54;;;;;;;37.30;19.10;;;9.60;99.90;;;;;;4402411;28;656577;-76
2022/09/30 04:46:42;;;;;;;30.93;17.00;;;9.60;99.90;;;;;;4406288;28;656858;-76
2022/09/30 04:49:29;;;;;;;34.67;17.77;;;9.60;99.90;;;;;;4424742;28;656467;-76
2022/09/30 04:52:17;;;;;;;31.43;17.23;;;9.60;99.90;;;;;;4402836;28;657472;-76
2022/09/30 04:55:06;;;;;;;37.50;18.87;;;9.60;99.90;;;;;;4421722;28;656803;-76
2022/09/30 04:57:53;;;;;;;35.57;18.43;;;9.50;99.90;;;;;;4402670;28;657209;-76
2022/09/30 05:00:40;;;;;;;36.13;18.20;;;9.50;99.90;;;;;;4405019;28;657176;-76
2022/09/30 05:03:28;;;;;;;32.63;17.63;;;9.50;99.90;;;;;;4429899;28;657693;-76
2022/09/30 05:06:15;;;;;;;40.17;21.40;;;9.50;99.90;;;;;;4425136;28;656510;-76
2022/09/30 05:09:02;;;;;;;33.25;18.27;;;9.50;99.90;;;;;;4423390;28;657403;-77
2022/09/30 05:11:51;;;;;;;32.40;18.00;;;9.60;99.90;;;;;;4426229;28;656703;-76
2022/09/30 05:14:38;;;;;;;32.17;16.83;;;9.60;99.90;;;;;;4397526;28;656859;-76
2022/09/30 05:17:26;;;;;;;34.87;17.37;;;9.60;99.90;;;;;;4409851;28;656668;-76
2022/09/30 05:20:13;;;;;;;31.87;15.67;;;9.60;99.90;;;;;;4430090;28;656155;-76
2022/09/30 05:23:00;;;;;;;26.47;14.87;;;9.60;99.90;;;;;;4412229;28;656694;-76
2022/09/30 05:25:47;;;;;;;33.20;15.83;;;9.60;99.90;;;;;;4431088;28;656725;-76
2022/09/30 05:28:36;;;;;;;27.70;16.00;;;9.60;99.90;;;;;;4425524;28;656875;-76
2022/09/30 05:31:23;;;;;;;30.50;16.87;;;9.60;99.90;;;;;;4401746;28;656436;-77
2022/09/30 05:34:10;;;;;;;24.67;14.30;;;9.60;99.90;;;;;;4409136;28;656758;-76
2022/09/30 05:36:57;;;;;;;27.30;14.83;;;9.70;99.90;;;;;;4431053;28;656284;-76
2022/09/30 05:39:44;;;;;;;27.37;15.80;;;9.70;99.90;;;;;;4419787;28;656357;-76
2022/09/30 05:42:35;;;;;;;30.13;15.87;;;9.70;99.90;;;;;;4402575;28;657515;-76
2022/09/30 05:45:24;;;;;;;26.47;14.30;;;9.80;99.90;;;;;;4397825;28;656622;-76
2022/09/30 05:48:11;;;;;;;29.23;15.47;;;9.80;99.90;;;;;;4408137;28;660052;-76
2022/09/30 05:51:00;;;;;;;40.10;18.90;;;9.90;99.90;;;;;;4424532;28;657483;-77
2022/09/30 05:53:47;;;;;;;42.28;19.25;;;9.90;99.90;;;;;;4404812;28;657795;-76
2022/09/30 05:56:34;;;;;;;39.10;18.83;;;10.00;99.90;;;;;;4420745;28;656274;-77
2022/09/30 05:59:21;;;;;;;46.97;21.53;;;10.00;99.90;;;;;;4402362;28;658162;-77
2022/09/30 06:02:10;;;;;;;34.47;17.67;;;10.00;99.90;;;;;;4421933;28;658269;-77
2022/09/30 06:04:57;;;;;;;24.20;14.03;;;10.10;99.90;;;;;;4403392;28;657984;-76
2022/09/30 06:07:44;;;;;;;21.73;13.60;;;10.10;99.90;;;;;;4420688;28;658364;-76
2022/09/30 06:10:31;;;;;;;24.40;14.10;;;10.20;99.90;;;;;;4398552;28;657492;-77
2022/09/30 06:13:19;;;;;;;24.17;13.83;;;10.20;99.90;;;;;;4426530;28;658116;-77
2022/09/30 06:16:07;;;;;;;22.93;14.07;;;10.20;99.90;;;;;;4404549;28;657559;-76
2022/09/30 06:18:56;;;;;;;25.97;15.50;;;10.20;99.90;;;;;;4423526;28;657217;-76
2022/09/30 06:21:43;;;;;;;25.67;16.80;;;10.20;99.90;;;;;;4399011;28;657820;-76
2022/09/30 06:24:30;;;;;;;38.77;20.87;;;10.20;99.90;;;;;;4410178;28;657934;-76
2022/09/30 06:27:18;;;;;;;62.57;23.13;;;10.30;99.90;;;;;;4423955;28;658103;-76
2022/09/30 06:30:06;;;;;;;44.80;18.93;;;10.30;99.90;;;;;;4413126;28;657308;-77
2022/09/30 06:32:56;;;;;;;25.50;14.10;;;10.40;99.90;;;;;;4424023;28;657812;-77
2022/09/30 06:35:46;;;;;;;23.10;13.27;;;10.40;99.90;;;;;;4398195;28;658037;-76
2022/09/30 06:38:36;;;;;;;26.23;14.53;;;10.50;99.90;;;;;;4399516;28;657380;-77
2022/09/30 06:41:26;;;;;;;21.23;12.93;;;10.50;99.90;;;;;;4390802;28;658593;-77
2022/09/30 06:44:13;;;;;;;23.37;12.87;;;10.50;99.90;;;;;;4389438;28;657532;-77
2022/09/30 06:47:00;;;;;;;24.90;12.50;;;10.60;99.90;;;;;;4403610;28;657859;-77
2022/09/30 06:49:47;;;;;;;19.93;12.10;;;10.50;99.90;;;;;;4419874;28;657803;-76
2022/09/30 06:52:36;;;;;;;19.23;11.93;;;10.60;99.90;;;;;;4418949;28;657686;-77
2022/09/30 06:55:23;;;;;;;19.70;11.03;;;10.50;99.90;;;;;;4398921;28;658269;-77
2022/09/30 06:58:15;;;;;;;18.37;11.30;;;10.60;99.90;;;;;;4407561;28;657667;-78
2022/09/30 07:01:06;;;;;;;17.20;11.37;;;10.60;99.90;;;;;;4404307;28;658050;-77
2022/09/30 07:03:56;;;;;;;19.30;10.47;;;10.50;99.90;;;;;;4392396;28;658443;-77
2022/09/30 07:06:43;;;;;;;20.67;11.90;;;10.60;99.90;;;;;;4385416;28;657578;-76
2022/09/30 07:09:32;;;;;;;21.07;11.57;;;10.60;99.90;;;;;;4391725;28;659163;-77
2022/09/30 07:12:19;;;;;;;18.93;11.00;;;10.60;99.90;;;;;;4423824;28;657361;-77
2022/09/30 07:15:07;;;;;;;24.58;13.48;;;10.60;99.90;;;;;;4401529;28;657584;-77
2022/09/30 07:17:55;;;;;;;22.07;12.57;;;10.60;99.90;;;;;;4425102;28;657185;-76
2022/09/30 07:20:47;;;;;;;16.80;10.52;;;10.60;99.90;;;;;;4398281;28;658582;-77
2022/09/30 07:23:34;;;;;;;19.97;11.03;;;10.60;99.90;;;;;;4402252;28;657570;-77
2022/09/30 07:26:23;;;;;;;19.80;11.57;;;10.60;99.90;;;;;;4395426;28;657831;-77
2022/09/30 07:29:10;;;;;;;14.82;10.38;;;10.60;99.90;;;;;;4399301;28;657269;-76
2022/09/30 07:31:57;;;;;;;15.40;9.90;;;10.60;99.90;;;;;;4422240;28;657084;-76
2022/09/30 07:34:44;;;;;;;15.97;10.33;;;10.60;99.90;;;;;;4423155;28;656424;-77
2022/09/30 07:37:34;;;;;;;16.97;11.47;;;10.70;99.90;;;;;;4404727;28;658031;-77
2022/09/30 07:40:21;;;;;;;19.70;12.37;;;10.70;99.90;;;;;;4400749;28;657436;-76
2022/09/30 07:43:10;;;;;;;38.23;16.93;;;10.70;99.90;;;;;;4421275;28;659023;-76
2022/09/30 07:45:58;;;;;;;20.13;11.33;;;10.70;99.90;;;;;;4400669;28;657696;-77
2022/09/30 07:48:47;;;;;;;22.17;13.10;;;10.60;99.90;;;;;;4400248;28;657788;-77
2022/09/30 07:51:35;;;;;;;25.23;13.47;;;10.70;99.90;;;;;;4428101;28;657429;-76
2022/09/30 07:54:26;;;;;;;20.10;12.20;;;10.70;99.90;;;;;;4402440;28;658064;-76
2022/09/30 07:57:14;;;;;;;19.77;11.53;;;10.60;99.90;;;;;;4394926;28;658384;-76
2022/09/30 08:00:03;;;;;;;22.87;14.17;;;10.70;99.90;;;;;;4400545;28;658052;-77
2022/09/30 08:02:50;;;;;;;24.30;13.93;;;10.60;99.90;;;;;;4405968;28;658297;-76
2022/09/30 08:05:39;;;;;;;20.80;11.65;;;10.70;99.90;;;;;;4428230;28;657675;-77
2022/09/30 08:08:26;;;;;;;16.70;10.43;;;10.70;99.90;;;;;;4397525;28;657962;-77
2022/09/30 08:11:14;;;;;;;25.03;12.20;;;10.80;99.90;;;;;;4420422;28;658359;-77
2022/09/30 08:14:01;;;;;;;21.77;11.23;;;10.80;99.90;;;;;;4399567;28;657623;-77
2022/09/30 08:16:49;;;;;;;19.83;12.80;;;10.80;99.90;;;;;;4428100;28;658562;-79
2022/09/30 08:19:37;;;;;;;23.70;13.50;;;10.80;99.90;;;;;;4406135;28;658343;-78
2022/09/30 08:22:24;;;;;;;199.07;42.50;;;10.90;99.90;;;;;;4428611;28;657108;-79
2022/09/30 08:25:11;;;;;;;57.65;25.08;;;10.90;99.90;;;;;;4403895;28;659114;-78
2022/09/30 08:27:59;;;;;;;22.50;13.37;;;10.90;99.90;;;;;;4424575;28;659483;-79
2022/09/30 08:30:46;;;;;;;22.57;13.57;;;11.00;99.90;;;;;;4405924;28;657666;-79
2022/09/30 08:33:34;;;;;;;26.33;15.47;;;11.00;99.90;;;;;;4426570;28;658557;-79
2022/09/30 08:36:23;;;;;;;23.80;14.43;;;11.10;99.90;;;;;;4409846;28;657836;-78
2022/09/30 08:39:11;;;;;;;23.67;13.50;;;11.30;99.90;;;;;;4411259;28;657982;-78
2022/09/30 08:42:05;;;;;;;16.80;9.93;;;11.30;99.90;;;;;;4426983;28;658753;-79
2022/09/30 08:44:52;;;;;;;17.30;10.97;;;11.30;99.90;;;;;;4381745;28;656671;-78
2022/09/30 08:47:43;;;;;;;18.43;10.70;;;11.40;99.90;;;;;;4424178;28;657231;-78
2022/09/30 08:50:34;;;;;;;19.15;11.02;;;11.40;99.90;;;;;;4378579;28;657718;-78
2022/09/30 08:53:23;;;;;;;15.80;9.93;;;11.50;99.90;;;;;;4410051;28;658375;-78
2022/09/30 08:56:12;;;;;;;16.23;10.00;;;11.50;99.90;;;;;;4411987;28;657562;-78
2022/09/30 08:59:01;;;;;;;15.10;9.20;;;11.50;99.90;;;;;;4430823;28;657491;-78
2022/09/30 09:01:49;;;;;;;14.77;8.97;;;11.60;99.90;;;;;;4405910;28;657391;-78
2022/09/30 09:04:36;;;;;;;14.53;9.47;;;11.60;99.90;;;;;;4407789;28;657024;-78
2022/09/30 09:07:33;;;;;;;15.23;9.83;;;11.60;99.90;;;;;;4427416;28;656906;-78
2022/09/30 09:10:27;;;;;;;11.82;7.20;;;11.70;99.90;;;;;;4410133;28;656187;-77
2022/09/30 09:13:20;;;;;;;18.63;8.30;;;11.60;99.90;;;;;;4403598;28;657144;-78
2022/09/30 09:16:09;;;;;;;11.37;7.53;;;11.70;99.90;;;;;;4409165;28;656586;-77
2022/09/30 09:19:01;;;;;;;12.87;7.80;;;11.70;99.90;;;;;;4407740;28;656568;-76
2022/09/30 09:21:52;;;;;;;18.73;11.27;;;11.80;99.90;;;;;;4405627;28;656717;-77
2022/09/30 09:24:42;;;;;;;21.87;9.77;;;11.80;99.90;;;;;;4403840;28;657418;-77
2022/09/30 09:27:34;;;;;;;17.63;10.53;;;11.90;99.90;;;;;;4401889;28;656571;-77
2022/09/30 09:30:22;;;;;;;17.60;10.73;;;11.90;99.90;;;;;;4399608;28;657801;-77
2022/09/30 09:33:14;;;;;;;12.50;8.00;;;11.80;99.90;;;;;;4421424;28;658518;-77
2022/09/30 09:36:12;;;;;;;13.70;8.23;;;11.90;99.90;;;;;;4406837;28;656656;-77
2022/09/30 09:39:07;;;;;;;11.77;7.97;;;11.80;99.90;;;;;;4400264;28;656664;-76
2022/09/30 09:42:00;;;;;;;12.13;7.40;;;11.90;99.90;;;;;;4416534;28;656992;-77
2022/09/30 09:44:50;;;;;;;20.90;11.00;;;11.90;99.90;;;;;;4398884;28;657010;-77
2022/09/30 09:47:38;;;;;;;11.87;7.77;;;11.90;99.90;;;;;;4394998;28;658456;-77
2022/09/30 09:50:27;;;;;;;11.20;7.40;;;12.00;99.90;;;;;;4404619;28;656948;-76
2022/09/30 09:53:23;;;;;;;11.97;7.60;;;11.90;99.90;;;;;;4423620;28;657946;-76
2022/09/30 09:56:17;;;;;;;13.63;8.67;;;11.90;99.90;;;;;;4418428;28;656792;-76
2022/09/30 09:59:08;;;;;;;15.33;8.70;;;11.90;99.90;;;;;;4411825;28;656311;-77
2022/09/30 10:01:55;;;;;;;14.37;9.03;;;12.00;99.90;;;;;;4391975;28;656984;-77
2022/09/30 10:04:49;;;;;;;13.50;9.67;;;12.00;99.90;;;;;;4434882;28;656860;-77
2022/09/30 10:07:37;;;;;;;15.63;9.10;;;11.80;99.90;;;;;;4404221;28;657150;-77
2022/09/30 10:10:24;;;;;;;20.37;12.43;;;11.90;99.90;;;;;;4435603;28;657258;-77
2022/09/30 10:13:19;;;;;;;22.47;14.23;;;11.90;99.90;;;;;;4404299;28;657682;-77
2022/09/30 10:16:22;;;;;;;23.73;14.80;;;12.00;99.90;;;;;;4413737;28;658849;-76
2022/09/30 10:19:18;;;;;;;36.80;20.17;;;12.00;99.90;;;;;;4404892;28;657603;-77
2022/09/30 10:22:18;;;;;;;27.33;15.37;;;11.90;99.90;;;;;;4381210;28;658033;-77
2022/09/30 10:25:23;;;;;;;15.07;9.43;;;11.70;99.90;;;;;;4379978;28;658131;-77
2022/09/30 10:28:20;;;;;;;12.47;7.73;;;11.70;99.90;;;;;;4408893;28;656586;-78
2022/09/30 10:31:13;;;;;;;19.07;10.60;;;11.80;99.90;;;;;;4401797;28;656698;-77
2022/09/30 10:34:03;;;;;;;18.30;9.83;;;11.70;99.90;;;;;;4390393;28;657280;-77
2022/09/30 10:36:50;;;;;;;18.03;8.90;;;11.80;99.90;;;;;;4412958;28;656686;-76
2022/09/30 10:39:38;;;;;;;18.20;9.40;;;11.90;99.90;;;;;;4416947;28;657407;-77
2022/09/30 10:42:25;;;;;;;37.00;16.20;;;11.90;99.90;;;;;;4409174;28;656786;-77
2022/09/30 10:45:18;;;;;;;17.70;9.20;;;12.00;99.90;;;;;;4422492;28;658473;-78
2022/09/30 10:48:07;;;;;;;10.63;6.80;;;12.00;99.90;;;;;;4386643;28;656987;-76
2022/09/30 10:50:55;;;;;;;11.87;6.57;;;12.00;99.90;;;;;;4430071;28;655980;-78
2022/09/30 10:53:42;;;;;;;9.20;6.10;;;11.90;99.90;;;;;;4406283;28;657337;-78
2022/09/30 10:56:53;;;;;;;9.03;5.47;;;11.90;99.90;;;;;;4426953;28;655728;-77
2022/09/30 10:59:40;;;;;;;8.60;5.43;;;11.80;99.90;;;;;;4373896;28;656220;-78
2022/09/30 11:02:30;;;;;;;7.53;4.67;;;11.80;99.90;;;;;;4426665;28;656927;-78
2022/09/30 11:05:21;;;;;;;11.80;6.97;;;11.90;99.90;;;;;;4411814;28;655466;-78
2022/09/30 11:08:13;;;;;;;10.90;6.83;;;11.90;99.90;;;;;;4406283;28;656970;-78
2022/09/30 11:11:04;;;;;;;9.57;6.10;;;11.90;99.90;;;;;;4382979;28;656397;-76
2022/09/30 11:13:55;;;;;;;14.57;6.30;;;12.00;99.90;;;;;;4405007;28;656084;-77
2022/09/30 11:16:47;;;;;;;15.37;6.87;;;12.00;99.90;;;;;;4400873;28;656754;-77
2022/09/30 11:19:38;;;;;;;17.37;7.80;;;12.00;99.90;;;;;;4402692;28;657031;-77
2022/09/30 11:22:37;;;;;;;18.20;9.57;;;12.00;99.90;;;;;;4397171;28;656311;-77
2022/09/30 11:25:27;;;;;;;11.13;5.90;;;12.00;99.90;;;;;;4401955;28;656635;-77
2022/09/30 11:28:24;;;;;;;23.90;11.37;;;11.90;99.90;;;;;;4406101;28;656056;-77
2022/09/30 11:31:17;;;;;;;9.63;5.53;;;12.00;99.90;;;;;;4401658;28;658233;-77
2022/09/30 11:34:20;;;;;;;10.37;5.90;;;12.00;99.90;;;;;;4402309;28;655739;-77
2022/09/30 11:37:10;;;;;;;13.82;6.60;;;12.00;99.90;;;;;;4404080;28;656757;-77
2022/09/30 11:40:19;;;;;;;22.83;10.00;;;12.00;99.90;;;;;;4403342;28;657169;-77
2022/09/30 11:43:12;;;;;;;17.63;8.23;;;12.00;99.90;;;;;;4403309;28;657687;-77
2022/09/30 11:46:11;;;;;;;13.57;6.80;;;12.00;99.90;;;;;;4404907;28;656319;-77
2022/09/30 11:49:05;;;;;;;15.33;9.60;;;12.00;99.90;;;;;;4398937;28;657038;-77
2022/09/30 11:51:56;;;;;;;14.57;8.23;;;11.90;99.90;;;;;;4405170;28;657378;-76
2022/09/30 11:54:57;;;;;;;7.90;5.90;;;12.00;99.90;;;;;;4406863;28;657715;-77
2022/09/30 11:57:48;;;;;;;7.70;5.50;;;12.00;99.90;;;;;;4402122;28;656242;-77
2022/09/30 12:00:37;;;;;;;8.23;5.77;;;12.00;99.90;;;;;;4379108;28;655794;-77
2022/09/30 12:03:26;;;;;;;7.30;4.33;;;12.00;99.90;;;;;;4423697;28;657443;-77
2022/09/30 12:06:25;;;;;;;5.97;3.77;;;12.00;99.90;;;;;;4400405;28;656516;-76
2022/09/30 12:09:16;;;;;;;5.03;3.90;;;12.10;99.90;;;;;;4400392;28;656766;-76
2022/09/30 12:12:05;;;;;;;5.50;4.00;;;12.00;99.90;;;;;;4401334;28;656471;-76
2022/09/30 12:14:55;;;;;;;8.77;3.70;;;12.10;99.90;;;;;;4403264;28;655731;-76
2022/09/30 12:17:44;;;;;;;5.93;2.80;;;12.20;99.90;;;;;;4409263;28;656472;-76
2022/09/30 12:20:33;;;;;;;4.93;3.50;;;12.00;99.90;;;;;;4411267;28;655512;-77
2022/09/30 12:23:21;;;;;;;5.60;3.70;;;12.00;99.90;;;;;;4409811;28;655247;-76
2022/09/30 12:26:08;;;;;;;6.47;3.80;;;12.10;99.90;;;;;;4433365;28;656427;-75
2022/09/30 12:32:50;;;;;;;5.77;4.33;;;12.30;99.90;;;;;;4374012;28;656004;-75
2022/09/30 12:35:48;;;;;;;6.40;4.60;;;12.20;99.90;;;;;;4383592;28;655655;-76
2022/09/30 12:38:57;;;;;;;5.83;4.50;;;12.30;99.90;;;;;;4407237;28;655539;-76
2022/09/30 12:41:51;;;;;;;6.33;4.10;;;12.20;99.90;;;;;;4405631;28;656022;-76
2022/09/30 12:45:00;;;;;;;7.10;4.23;;;12.10;99.90;;;;;;4410865;28;655831;-77
2022/09/30 12:47:48;;;;;;;8.43;4.80;;;12.20;99.90;;;;;;4402154;28;655702;-76
2022/09/30 12:50:40;;;;;;;6.80;4.90;;;12.10;99.90;;;;;;4405927;28;655842;-76
2022/09/30 12:53:28;;;;;;;9.00;4.83;;;12.10;99.90;;;;;;4410306;28;655947;-76
2022/09/30 12:56:16;;;;;;;6.97;4.17;;;12.20;99.90;;;;;;4408666;28;656080;-77
2022/09/30 12:59:03;;;;;;;6.97;4.10;;;12.00;99.90;;;;;;4432196;28;657005;-76
2022/09/30 13:01:50;;;;;;;6.55;3.38;;;12.00;99.90;;;;;;4413471;28;655617;-77
2022/09/30 13:04:38;;;;;;;4.57;3.50;;;12.00;99.90;;;;;;4432233;28;655731;-76
2022/09/30 13:07:27;;;;;;;7.40;3.90;;;11.90;99.90;;;;;;4407106;28;655527;-76
2022/09/30 13:10:27;;;;;;;6.83;4.23;;;11.90;99.90;;;;;;4432634;28;655223;-76
2022/09/30 13:13:22;;;;;;;7.03;4.00;;;11.90;99.90;;;;;;4404495;28;658909;-76
2022/09/30 13:16:09;;;;;;;6.80;3.97;;;12.00;99.90;;;;;;4407197;28;655119;-77
2022/09/30 13:19:00;;;;;;;5.67;3.90;;;12.20;99.90;;;;;;4409049;28;655755;-77
2022/09/30 13:21:47;;;;;;;5.10;3.70;;;12.20;99.90;;;;;;4404208;28;656190;-77
2022/09/30 13:25:05;;;;;;;6.80;4.00;;;12.20;99.90;;;;;;4428136;28;655219;-76
2022/09/30 13:27:54;;;;;;;4.63;2.80;;;12.20;99.90;;;;;;4408692;28;655369;-76
2022/09/30 13:30:41;;;;;;;3.87;2.83;;;12.50;99.90;;;;;;4405581;28;655316;-76
2022/09/30 13:33:44;;;;;;;3.80;2.70;;;12.50;99.90;;;;;;4430097;28;655419;-78
2022/09/30 13:36:32;;;;;;;7.03;2.70;;;12.70;99.90;;;;;;4383357;28;656135;-77
2022/09/30 13:39:22;;;;;;;4.27;2.10;;;12.80;99.90;;;;;;4431610;28;655498;-76
2022/09/30 13:42:13;;;;;;;3.10;2.13;;;12.70;99.90;;;;;;4427509;28;656577;-76
2022/09/30 13:45:02;;;;;;;2.83;2.10;;;12.70;99.90;;;;;;4422111;28;656832;-76
2022/09/30 13:47:50;;;;;;;3.17;2.30;;;12.70;99.90;;;;;;4426736;28;655294;-76
2022/09/30 13:50:41;;;;;;;3.17;2.20;;;12.80;99.90;;;;;;4410006;28;655932;-76
2022/09/30 13:53:29;;;;;;;2.47;2.00;;;12.80;99.90;;;;;;4405276;28;655159;-76
2022/09/30 13:56:19;;;;;;;4.15;2.70;;;12.90;99.90;;;;;;4410064;28;655353;-76
2022/09/30 13:59:20;;;;;;;3.50;2.90;;;12.80;99.90;;;;;;4408950;28;655358;-76
2022/09/30 14:02:41;;;;;;;3.77;2.70;;;12.70;99.90;;;;;;4407622;28;654985;-76
2022/09/30 14:05:41;;;;;;;2.97;2.40;;;12.60;99.90;;;;;;4406129;28;655724;-76
2022/09/30 14:08:54;;;;;;;4.83;3.17;;;12.60;99.90;;;;;;4405550;28;656212;-76
2022/09/30 14:11:58;;;;;;;7.00;3.83;;;12.60;99.90;;;;;;4383498;28;655726;-76
2022/09/30 14:15:05;;;;;;;6.83;4.10;;;12.50;99.90;;;;;;4418900;28;655656;-76
2022/09/30 14:18:08;;;;;;;8.57;4.57;;;12.30;99.90;;;;;;4385968;28;655746;-76
2022/09/30 14:21:15;;;;;;;11.73;5.63;;;12.10;99.90;;;;;;4383246;28;655213;-77
2022/09/30 14:24:04;;;;;;;11.63;5.45;;;11.80;99.90;;;;;;4406538;28;656702;-77
2022/09/30 14:27:04;;;;;;;9.37;5.47;;;12.00;99.90;;;;;;4401397;28;656293;-76
2022/09/30 14:29:57;;;;;;;10.13;4.63;;;12.20;99.90;;;;;;4410954;28;656389;-76